Time;durP1;ratioP1;P1;durP2;ratioP2;P2;SDS_P1;SDS_P2;PMS_P1;PMS_P2;Temp;Humidity;BMP_temperature;BMP_pressure;BME280_temperature;BME280_humidity;BME280_pressure;Samples;Min_cycle;Max_cycle;Signal;HPM_P1;HPM_P2
2023/01/08 00:17:51;;;;;;;;;;;;;;;11.02;55.33;96539.44;4248428;27;10305;-72
2023/01/08 00:19:54;;;;;;;;;;;;;;;11.31;54.80;96526.81;4232916;27;6254;-71
2023/01/08 00:21:57;;;;;;;;;;;;;;;11.53;54.69;96528.22;4248856;27;5605;-71
2023/01/08 00:23:59;;;;;;;;;;;;;;;11.66;54.40;96533.53;4245141;27;5139;-72
2023/01/08 00:26:04;;;;;;;;;;;;;;;11.76;54.15;96534.91;4233862;27;7660;-71
2023/01/08 00:28:06;;;;;;;;;;;;;;;11.83;53.98;96519.88;4245518;27;5831;-71
2023/01/08 00:30:10;;;;;;;;;;;;;;;11.91;53.75;96511.69;4238959;27;5601;-72
2023/01/08 00:32:13;;;;;;;;;;;;;;;12.01;53.68;96506.78;4248939;27;5839;-72
2023/01/08 00:34:17;;;;;;;;;;;;;;;12.08;53.63;96512.03;4236472;27;5684;-72
2023/01/08 00:36:20;;;;;;;;;;;;;;;12.13;53.57;96499.81;4243540;27;5668;-72
2023/01/08 00:38:26;;;;;;;;;;;;;;;12.18;53.41;96485.91;4250207;27;5691;-72
2023/01/08 00:40:28;;;;;;;;;;;;;;;12.24;53.41;96479.78;4250024;27;5598;-72
2023/01/08 00:42:31;;;;;;;;;;;;;;;12.29;53.32;96479.94;4233902;27;5676;-72
2023/01/08 00:44:34;;;;;;;;;;;;;;;12.30;53.13;96473.63;4242912;27;5681;-72
2023/01/08 00:46:36;;;;;;;;;;;;;;;12.30;53.14;96465.66;4244809;27;5681;-72
2023/01/08 00:48:39;;;;;;;;;;;;;;;12.33;53.39;96453.81;4238441;27;5648;-72
2023/01/08 00:50:43;;;;;;;;;;;;;;;12.37;53.05;96463.00;4231622;28;5601;-73
2023/01/08 00:52:46;;;;;;;;;;;;;;;12.36;53.37;96451.59;4244882;27;5598;-73
2023/01/08 00:54:49;;;;;;;;;;;;;;;12.35;53.50;96449.97;4244761;27;5691;-72
2023/01/08 00:56:51;;;;;;;;;;;;;;;12.35;53.28;96443.84;4242022;27;5574;-70
2023/01/08 00:58:55;;;;;;;;;;;;;;;12.35;53.41;96433.25;4238526;27;5605;-73
2023/01/08 01:00:58;;;;;;;;;;;;;;;12.35;53.17;96441.19;4243490;27;5673;-72
2023/01/08 01:03:01;;;;;;;;;;;;;;;12.34;53.07;96437.72;4257081;27;5090;-72
2023/01/08 01:05:05;;;;;;;;;;;;;;;12.34;53.34;96432.41;4248264;27;5576;-73
2023/01/08 01:07:09;;;;;;;;;;;;;;;12.33;53.26;96427.31;4253394;27;5626;-72
2023/01/08 01:09:12;;;;;;;;;;;;;;;12.35;53.05;96412.03;4243622;27;5608;-72
2023/01/08 01:11:19;;;;;;;;;;;;;;;12.38;53.21;96412.41;4238845;27;5627;-72
2023/01/08 01:13:22;;;;;;;;;;;;;;;12.41;52.83;96406.69;4239506;27;5608;-72
2023/01/08 01:15:25;;;;;;;;;;;;;;;12.41;52.81;96379.38;4231157;27;5668;-72
2023/01/08 01:17:27;;;;;;;;;;;;;;;12.46;52.92;96368.94;4244346;27;5752;-72
2023/01/08 01:19:30;;;;;;;;;;;;;;;12.49;52.85;96366.66;4248869;27;5602;-72
2023/01/08 01:21:33;;;;;;;;;;;;;;;12.50;52.69;96364.81;4223574;27;5816;-72
2023/01/08 01:23:37;;;;;;;;;;;;;;;12.47;52.78;96357.31;4219402;28;5612;-72
2023/01/08 01:25:40;;;;;;;;;;;;;;;12.46;52.72;96366.28;4222169;28;5704;-72
2023/01/08 01:27:43;;;;;;;;;;;;;;;12.48;52.52;96374.84;4232224;28;5587;-72
2023/01/08 01:29:45;;;;;;;;;;;;;;;12.45;52.55;96357.50;4226123;28;5139;-72
2023/01/08 01:31:48;;;;;;;;;;;;;;;12.38;52.38;96366.53;4228238;27;7726;-72
2023/01/08 01:33:51;;;;;;;;;;;;;;;12.37;52.57;96368.38;4253797;27;5619;-72
2023/01/08 01:36:01;;;;;;;;;;;;;;;12.38;52.33;96363.91;4234283;27;5621;-72
2023/01/08 01:38:04;;;;;;;;;;;;;;;12.37;52.62;96362.28;4221392;28;5608;-72
2023/01/08 01:40:09;;;;;;;;;;;;;;;12.39;52.75;96365.50;4228848;28;5772;-72
2023/01/08 01:42:38;;;;;;;;;;;;;;;12.41;52.72;96366.09;4224829;27;5869;-72
2023/01/08 01:44:40;;;;;;;;;;;;;;;12.43;52.82;96377.31;4228356;27;6447;-72
2023/01/08 01:46:43;;;;;;;;;;;;;;;12.43;52.82;96369.34;4222228;28;5608;-72
2023/01/08 01:48:48;;;;;;;;;;;;;;;12.42;52.67;96370.38;4227735;28;5677;-72
2023/01/08 01:50:53;;;;;;;;;;;;;;;12.40;53.00;96367.13;4225477;27;6318;-72
2023/01/08 01:53:01;;;;;;;;;;;;;;;12.39;52.83;96357.56;4225570;27;5594;-72
2023/01/08 01:55:05;;;;;;;;;;;;;;;12.39;52.83;96365.50;4236407;28;5621;-72
2023/01/08 01:57:10;;;;;;;;;;;;;;;12.39;52.75;96361.03;4230846;28;5610;-72
2023/01/08 01:59:14;;;;;;;;;;;;;;;12.43;53.09;96362.22;4233006;28;5620;-72
2023/01/08 02:01:16;;;;;;;;;;;;;;;12.48;52.90;96354.44;4219487;28;5605;-72
2023/01/08 02:03:22;;;;;;;;;;;;;;;12.51;52.53;96347.88;4225872;28;5673;-72
2023/01/08 02:05:31;;;;;;;;;;;;;;;12.47;52.57;96354.66;4222674;27;5616;-73
2023/01/08 02:07:41;;;;;;;;;;;;;;;12.42;52.63;96344.69;4231749;27;5575;-72
2023/01/08 02:09:49;;;;;;;;;;;;;;;12.41;52.86;96342.25;4219308;27;5668;-73
2023/01/08 02:12:16;;;;;;;;;;;;;;;12.40;52.63;96345.94;4227997;28;5601;-73
2023/01/08 02:14:26;;;;;;;;;;;;;;;12.40;52.88;96351.22;4231234;28;5628;-72
2023/01/08 02:16:39;;;;;;;;;;;;;;;12.40;52.84;96356.53;4221073;28;5775;-72
2023/01/08 02:18:47;;;;;;;;;;;;;;;12.41;52.59;96364.28;4228891;28;7305;-72
2023/01/08 02:20:55;;;;;;;;;;;;;;;12.40;52.63;96360.00;4224171;27;5613;-73
2023/01/08 02:23:13;;;;;;;;;;;;;;;12.41;52.50;96353.66;4232544;27;5744;-73
2023/01/08 02:25:22;;;;;;;;;;;;;;;12.41;52.38;96352.84;4243660;27;5576;-72
2023/01/08 02:27:30;;;;;;;;;;;;;;;12.41;52.50;96348.38;4229325;28;5689;-72
2023/01/08 02:29:33;;;;;;;;;;;;;;;12.42;52.36;96342.03;4232612;27;5563;-72
2023/01/08 02:31:39;;;;;;;;;;;;;;;12.44;51.96;96339.97;4221961;27;6370;-72
2023/01/08 02:33:42;;;;;;;;;;;;;;;12.44;52.29;96341.81;4235483;27;5670;-73
2023/01/08 02:35:51;;;;;;;;;;;;;;;12.42;51.98;96349.19;4237730;27;6441;-72
2023/01/08 02:37:54;;;;;;;;;;;;;;;12.42;52.17;96347.34;4234855;28;6287;-73
2023/01/08 02:40:06;;;;;;;;;;;;;;;12.43;52.12;96340.19;4224961;28;5612;-72
2023/01/08 02:42:14;;;;;;;;;;;;;;;12.43;52.30;96348.13;4226868;28;5665;-73
2023/01/08 02:44:22;;;;;;;;;;;;;;;12.44;51.71;96353.22;4232386;28;5708;-73
2023/01/08 02:46:30;;;;;;;;;;;;;;;12.45;52.02;96362.81;4229029;27;5828;-72
2023/01/08 02:48:38;;;;;;;;;;;;;;;12.47;51.89;96363.41;4226785;28;5621;-72
2023/01/08 02:50:44;;;;;;;;;;;;;;;12.47;51.74;96376.69;4231915;28;5923;-73
2023/01/08 02:52:55;;;;;;;;;;;;;;;12.48;51.94;96393.41;4235372;28;5598;-72
2023/01/08 02:55:01;;;;;;;;;;;;;;;12.50;51.73;96401.94;4221752;28;5621;-72
2023/01/08 02:57:11;;;;;;;;;;;;;;;12.51;51.61;96399.06;4232900;28;5601;-72
2023/01/08 02:59:16;;;;;;;;;;;;;;;12.53;51.54;96401.50;4231448;28;5624;-72
2023/01/08 03:01:22;;;;;;;;;;;;;;;12.53;51.69;96414.75;4218556;28;5624;-72
2023/01/08 03:03:27;;;;;;;;;;;;;;;12.55;51.51;96425.97;4220767;28;5612;-72
2023/01/08 03:05:30;;;;;;;;;;;;;;;12.55;51.60;96415.34;4230858;28;5594;-72
2023/01/08 03:07:33;;;;;;;;;;;;;;;12.56;51.71;96413.50;4227240;28;5631;-72
2023/01/08 03:09:36;;;;;;;;;;;;;;;12.56;51.64;96409.03;4234540;28;6125;-72
2023/01/08 03:11:44;;;;;;;;;;;;;;;12.56;51.72;96403.72;4229514;28;5767;-73
2023/01/08 03:13:54;;;;;;;;;;;;;;;12.54;51.47;96411.09;4208522;28;5627;-72
2023/01/08 03:16:00;;;;;;;;;;;;;;;12.60;51.34;96430.63;4234092;28;5689;-72
2023/01/08 03:18:12;;;;;;;;;;;;;;;12.60;51.71;96412.88;4234734;28;5590;-72
2023/01/08 03:20:16;;;;;;;;;;;;;;;12.60;51.65;96409.44;4225589;28;5614;-72
2023/01/08 03:22:21;;;;;;;;;;;;;;;12.63;51.38;96414.28;4231762;28;5303;-72
2023/01/08 03:24:28;;;;;;;;;;;;;;;12.61;51.47;96411.84;4231468;28;7651;-72
2023/01/08 03:26:36;;;;;;;;;;;;;;;12.60;51.72;96404.13;4231098;28;5755;-72
2023/01/08 03:28:44;;;;;;;;;;;;;;;12.61;51.67;96419.81;4234635;27;5829;-72
2023/01/08 07:03:57;;;;;;;;;;;;;;;10.97;65.04;96362.00;4248637;27;10162;-74
2023/01/08 07:06:02;;;;;;;;;;;;;;;11.29;64.29;96355.00;4232394;27;5681;-74
2023/01/08 07:08:05;;;;;;;;;;;;;;;11.50;64.22;96353.94;4246311;27;5660;-80
2023/01/08 07:10:08;;;;;;;;;;;;;;;11.66;63.76;96355.28;4238522;27;5635;-72
2023/01/08 07:12:12;;;;;;;;;;;;;;;11.81;63.64;96357.72;4239608;27;5713;-72
2023/01/08 07:14:15;;;;;;;;;;;;;;;11.94;63.67;96353.16;4240274;27;5612;-73
2023/01/08 07:16:18;;;;;;;;;;;;;;;12.03;63.06;96361.66;4247378;27;5587;-72
2023/01/08 07:18:20;;;;;;;;;;;;;;;12.10;62.98;96354.47;4257711;27;5661;-72
2023/01/08 07:20:24;;;;;;;;;;;;;;;12.19;63.17;96347.91;4257488;27;5590;-73
2023/01/08 07:22:28;;;;;;;;;;;;;;;12.27;63.04;96346.84;4255607;27;5681;-72
2023/01/08 07:24:30;;;;;;;;;;;;;;;12.31;62.80;96349.88;4236804;27;5705;-72
2023/01/08 07:26:33;;;;;;;;;;;;;;;12.34;62.94;96355.53;4237326;27;5594;-72
2023/01/08 07:28:39;;;;;;;;;;;;;;;12.37;62.67;96352.47;4247198;27;6613;-73
2023/01/08 07:30:43;;;;;;;;;;;;;;;12.41;62.84;96347.56;4219678;28;5680;-73
2023/01/08 07:32:46;;;;;;;;;;;;;;;12.43;62.86;96361.41;4244796;27;5657;-73
2023/01/08 07:34:49;;;;;;;;;;;;;;;12.45;62.83;96359.34;4246283;27;6414;-73
2023/01/08 07:36:53;;;;;;;;;;;;;;;12.45;62.71;96367.28;4239251;27;5672;-73
2023/01/08 07:38:55;;;;;;;;;;;;;;;12.44;62.68;96365.66;4237473;27;5852;-72
2023/01/08 07:40:58;;;;;;;;;;;;;;;12.42;62.55;96359.78;4239671;27;5616;-73
2023/01/08 07:43:04;;;;;;;;;;;;;;;12.42;62.77;96365.06;4238966;27;5676;-72
2023/01/08 07:45:07;;;;;;;;;;;;;;;12.42;62.56;96365.88;4244346;27;5858;-73
2023/01/08 07:47:10;;;;;;;;;;;;;;;12.42;62.68;96363.25;4238498;27;5093;-72
2023/01/08 07:49:13;;;;;;;;;;;;;;;12.45;62.57;96354.03;4238181;27;5633;-72
2023/01/08 07:51:16;;;;;;;;;;;;;;;12.47;62.47;96360.78;4242615;27;5720;-72
2023/01/08 07:53:20;;;;;;;;;;;;;;;12.49;62.71;96368.50;4233569;27;5606;-72
2023/01/08 07:55:22;;;;;;;;;;;;;;;12.49;62.60;96371.16;4235353;27;5748;-73
2023/01/08 07:57:25;;;;;;;;;;;;;;;12.49;62.63;96368.50;4237985;27;5704;-72
2023/01/08 07:59:32;;;;;;;;;;;;;;;12.51;62.34;96374.41;4241716;27;6074;-72
2023/01/08 08:01:36;;;;;;;;;;;;;;;12.53;62.60;96370.50;4243471;27;5704;-72
2023/01/08 08:03:39;;;;;;;;;;;;;;;12.54;62.38;96373.97;4240584;27;5629;-72
2023/01/08 08:05:42;;;;;;;;;;;;;;;12.52;62.39;96376.84;4228295;28;5661;-72
2023/01/08 08:07:45;;;;;;;;;;;;;;;12.49;62.34;96369.31;4234647;28;5642;-73
2023/01/08 08:09:49;;;;;;;;;;;;;;;12.47;62.39;96373.22;4229493;28;5103;-74
2023/01/08 08:11:52;;;;;;;;;;;;;;;12.48;62.38;96385.44;4231266;28;7678;-72
2023/01/08 08:13:54;;;;;;;;;;;;;;;12.49;62.35;96381.75;4224233;28;5626;-72
2023/01/08 08:16:02;;;;;;;;;;;;;;;12.48;62.65;96380.13;4230512;28;5696;-72
2023/01/08 08:18:05;;;;;;;;;;;;;;;12.48;62.48;96382.78;4234918;28;5609;-72
2023/01/08 08:20:09;;;;;;;;;;;;;;;12.49;62.57;96385.22;4229249;28;5598;-70
2023/01/08 08:22:12;;;;;;;;;;;;;;;12.52;62.43;96386.63;4230938;28;5095;-71
2023/01/08 08:24:15;;;;;;;;;;;;;;;12.54;62.19;96384.56;4212868;28;5835;-66
2023/01/08 08:26:20;;;;;;;;;;;;;;;12.58;62.36;96385.78;4233418;28;5626;-67
2023/01/08 08:28:23;;;;;;;;;;;;;;;12.61;62.40;96384.53;4232639;27;5685;-68
2023/01/08 08:30:27;;;;;;;;;;;;;;;12.60;62.30;96375.75;4228301;27;5858;-67
2023/01/08 08:32:30;;;;;;;;;;;;;;;12.61;62.26;96373.94;4223263;28;5624;-67
2023/01/08 08:34:33;;;;;;;;;;;;;;;12.62;62.07;96386.97;4234494;28;5623;-67
2023/01/08 08:36:36;;;;;;;;;;;;;;;12.62;62.16;96383.50;4230721;28;5656;-67
2023/01/08 08:38:39;;;;;;;;;;;;;;;12.61;62.13;96374.72;4227461;28;5642;-67
2023/01/08 08:40:41;;;;;;;;;;;;;;;12.57;62.34;96365.59;4236648;28;5725;-67
2023/01/08 08:42:46;;;;;;;;;;;;;;;12.57;62.26;96362.94;4226353;28;5711;-67
2023/01/08 08:44:49;;;;;;;;;;;;;;;12.59;62.17;96358.22;4219390;28;5605;-67
2023/01/08 08:46:52;;;;;;;;;;;;;;;12.57;61.94;96359.44;4226257;28;5618;-67
2023/01/08 08:48:55;;;;;;;;;;;;;;;12.56;62.29;96349.88;4234993;28;5756;-67
2023/01/08 08:50:57;;;;;;;;;;;;;;;12.57;62.07;96354.16;4235403;28;5598;-67
2023/01/08 08:53:00;;;;;;;;;;;;;;;12.52;62.38;96345.00;4234708;28;5614;-67
2023/01/08 08:55:03;;;;;;;;;;;;;;;12.54;62.21;96347.44;4235910;28;5653;-67
2023/01/08 08:57:06;;;;;;;;;;;;;;;12.54;62.21;96344.78;4234425;28;5718;-67
2023/01/08 08:59:12;;;;;;;;;;;;;;;12.53;62.36;96333.38;4234945;28;5613;-67
2023/01/08 09:01:14;;;;;;;;;;;;;;;12.56;62.40;96332.13;4230469;27;5603;-67
2023/01/08 09:03:17;;;;;;;;;;;;;;;12.57;62.22;96335.59;4234744;27;5673;-67
2023/01/08 09:05:20;;;;;;;;;;;;;;;12.60;62.06;96332.53;4221757;28;5600;-67
2023/01/08 09:07:23;;;;;;;;;;;;;;;12.62;62.17;96333.13;4244517;27;5697;-67
2023/01/08 09:09:26;;;;;;;;;;;;;;;12.60;62.16;96330.69;4235366;27;5658;-67
2023/01/08 09:11:29;;;;;;;;;;;;;;;12.61;61.88;96326.19;4242403;27;5672;-67
2023/01/08 09:13:32;;;;;;;;;;;;;;;12.59;62.10;96329.06;4246837;27;5583;-67
2023/01/08 09:15:37;;;;;;;;;;;;;;;12.61;61.88;96326.19;4231144;27;5669;-67
2023/01/08 09:17:40;;;;;;;;;;;;;;;12.62;61.78;96310.06;4218565;27;5806;-67
2023/01/08 09:19:43;;;;;;;;;;;;;;;12.63;62.06;96321.47;4250082;27;5580;-67
2023/01/08 09:21:46;;;;;;;;;;;;;;;12.60;61.72;96317.44;4228450;27;5632;-67
2023/01/08 09:23:49;;;;;;;;;;;;;;;12.61;61.85;96324.34;4219231;28;5781;-67
2023/01/08 09:25:59;;;;;;;;;;;;;;;12.63;62.01;96318.81;4233635;28;5630;-67
2023/01/08 09:28:04;;;;;;;;;;;;;;;12.63;61.48;96309.03;4225194;28;5508;-67
2023/01/08 09:30:08;;;;;;;;;;;;;;;12.61;61.53;96304.97;4235402;27;5579;-68
2023/01/08 09:32:12;;;;;;;;;;;;;;;12.61;61.50;96310.28;4235280;27;5670;-69
2023/01/08 09:34:15;;;;;;;;;;;;;;;12.61;61.68;96311.09;4222971;28;5740;-69
2023/01/08 09:36:20;;;;;;;;;;;;;;;12.61;61.70;96313.75;4227431;27;5708;-66
2023/01/08 09:38:23;;;;;;;;;;;;;;;12.61;61.62;96327.00;4229660;28;5606;-66
2023/01/08 09:40:31;;;;;;;;;;;;;;;12.62;61.35;96318.00;4233800;28;5622;-65
2023/01/08 09:42:34;;;;;;;;;;;;;;;12.63;61.64;96322.28;4226757;28;5670;-66
2023/01/08 09:44:40;;;;;;;;;;;;;;;12.61;61.30;96311.09;4221267;27;5610;-68
2023/01/08 09:46:44;;;;;;;;;;;;;;;12.62;61.41;96318.00;4240554;27;5932;-68
2023/01/08 09:48:50;;;;;;;;;;;;;;;12.61;61.23;96308.44;4230755;27;5622;-66
2023/01/08 09:50:52;;;;;;;;;;;;;;;12.60;61.27;96312.13;4231135;28;5590;-67
2023/01/08 09:52:56;;;;;;;;;;;;;;;12.59;61.62;96313.16;4225239;27;5121;-67
2023/01/08 09:55:00;;;;;;;;;;;;;;;12.57;61.28;96309.91;4237448;27;5602;-67
2023/01/08 09:57:03;;;;;;;;;;;;;;;12.57;61.30;96307.25;4223635;28;6365;-68
2023/01/08 09:59:06;;;;;;;;;;;;;;;12.56;61.35;96295.00;4225947;28;6378;-67
2023/01/08 10:01:12;;;;;;;;;;;;;;;12.56;61.52;96292.34;4235775;27;5606;-67
2023/01/08 10:03:15;;;;;;;;;;;;;;;12.56;61.58;96289.69;4225407;28;5649;-67
2023/01/08 10:05:19;;;;;;;;;;;;;;;12.55;61.62;96285.44;4233064;27;5587;-67
2023/01/08 10:07:24;;;;;;;;;;;;;;;12.53;61.39;96282.19;4234226;27;5664;-67
2023/01/08 10:09:29;;;;;;;;;;;;;;;12.53;61.67;96274.25;4221959;27;5751;-68
2023/01/08 10:11:40;;;;;;;;;;;;;;;12.51;61.33;96273.66;4230705;28;5721;-68
2023/01/08 10:13:47;;;;;;;;;;;;;;;12.52;61.47;96268.13;4226458;28;5696;-68
2023/01/08 10:15:51;;;;;;;;;;;;;;;12.53;61.48;96268.94;4217239;28;5668;-68
2023/01/08 10:18:01;;;;;;;;;;;;;;;12.53;61.47;96266.28;4225875;27;5594;-68
2023/01/08 10:20:12;;;;;;;;;;;;;;;12.54;61.51;96258.09;4239225;27;5615;-68
2023/01/08 10:22:18;;;;;;;;;;;;;;;12.55;61.80;96253.63;4234084;27;5775;-68
2023/01/08 10:24:31;;;;;;;;;;;;;;;12.55;61.45;96253.63;4220879;28;6327;-67
2023/01/08 10:26:35;;;;;;;;;;;;;;;12.56;61.75;96249.94;4225259;27;6283;-67
2023/01/08 10:28:38;;;;;;;;;;;;;;;12.56;61.66;96244.63;4227707;27;5681;-67
2023/01/08 10:30:41;;;;;;;;;;;;;;;12.56;61.52;96239.31;4232442;27;5797;-67
2023/01/08 10:32:48;;;;;;;;;;;;;;;12.58;61.70;96232.00;4219582;27;7692;-67
2023/01/08 10:34:52;;;;;;;;;;;;;;;12.57;61.69;96224.22;4212923;28;5590;-67
2023/01/08 10:36:55;;;;;;;;;;;;;;;12.55;61.62;96216.50;4225398;28;5617;-67
2023/01/08 10:39:01;;;;;;;;;;;;;;;12.55;61.61;96197.94;4227087;27;5582;-68
2023/01/08 10:41:09;;;;;;;;;;;;;;;12.53;61.82;96192.84;4235813;27;5637;-67
2023/01/08 10:43:15;;;;;;;;;;;;;;;12.58;61.71;96194.88;4218687;28;5883;-67
2023/01/08 10:45:21;;;;;;;;;;;;;;;12.58;61.86;96189.56;4221456;28;5621;-67
2023/01/08 10:47:27;;;;;;;;;;;;;;;12.57;61.67;96187.09;4221005;28;5697;-67
2023/01/08 10:49:33;;;;;;;;;;;;;;;12.60;61.95;96190.16;4223994;28;5608;-67
2023/01/08 10:51:36;;;;;;;;;;;;;;;12.62;61.86;96190.72;4217073;28;5712;-67
2023/01/08 10:53:40;;;;;;;;;;;;;;;12.60;61.84;96184.84;4218606;28;5812;-68
2023/01/08 10:55:44;;;;;;;;;;;;;;;12.60;61.90;96179.53;4221260;28;5586;-68
2023/01/08 10:57:53;;;;;;;;;;;;;;;12.61;61.92;96170.56;4226658;28;5602;-68
2023/01/08 10:59:57;;;;;;;;;;;;;;;12.64;61.97;96156.03;4228990;28;5126;-68
2023/01/08 11:02:25;;;;;;;;;;;;;;;12.64;61.68;96162.16;4225837;27;5572;-68
2023/01/08 11:04:32;;;;;;;;;;;;;;;12.65;61.83;96165.59;4224982;27;5609;-69
2023/01/08 11:06:44;;;;;;;;;;;;;;;12.65;61.49;96169.06;4216924;27;5665;-70
2023/01/08 11:08:51;;;;;;;;;;;;;;;12.62;61.77;96172.16;4246533;27;5677;-69
2023/01/08 11:10:57;;;;;;;;;;;;;;;12.60;61.86;96182.19;4232701;28;5597;-71
2023/01/08 11:13:03;;;;;;;;;;;;;;;12.57;61.85;96187.09;4240096;27;6256;-68
2023/01/08 11:15:24;;;;;;;;;;;;;;;12.60;62.18;96186.69;4221339;28;6357;-71
2023/01/08 11:17:27;;;;;;;;;;;;;;;12.61;61.96;96181.16;4220789;28;5778;-69
2023/01/08 11:19:32;;;;;;;;;;;;;;;12.64;62.03;96183.38;4232211;28;5590;-70
2023/01/08 11:21:35;;;;;;;;;;;;;;;12.67;61.75;96182.91;4225609;27;5680;-70
2023/01/08 11:23:38;;;;;;;;;;;;;;;12.65;61.94;96173.56;4224186;27;5749;-70
2023/01/08 11:25:44;;;;;;;;;;;;;;;12.62;62.03;96164.22;4222359;28;5721;-69
2023/01/08 11:27:51;;;;;;;;;;;;;;;12.62;61.90;96166.06;4220658;28;5646;-70
2023/01/08 11:30:00;;;;;;;;;;;;;;;12.62;62.02;96156.25;4222546;27;5697;-69
2023/01/08 11:32:17;;;;;;;;;;;;;;;12.62;62.21;96158.09;4213224;28;5944;-70
2023/01/08 11:34:29;;;;;;;;;;;;;;;12.61;61.91;96162.59;4221219;27;5663;-67
2023/01/08 11:36:34;;;;;;;;;;;;;;;12.62;62.12;96164.22;4220879;27;5735;-67
2023/01/08 11:38:37;;;;;;;;;;;;;;;12.63;62.02;96160.53;4222103;27;5724;-68
2023/01/08 11:40:48;;;;;;;;;;;;;;;12.64;61.92;96154.19;4231023;27;5681;-67
2023/01/08 11:43:10;;;;;;;;;;;;;;;12.65;62.16;96153.16;4232908;27;5586;-68
2023/01/08 11:45:25;;;;;;;;;;;;;;;12.64;62.26;96145.44;4231079;27;5610;-68
2023/01/08 11:47:46;;;;;;;;;;;;;;;12.63;62.31;96141.16;4227588;27;5736;-69
2023/01/08 11:50:05;;;;;;;;;;;;;;;12.63;62.04;96136.66;4232975;28;5832;-75
2023/01/08 11:52:19;;;;;;;;;;;;;;;12.63;62.17;96130.56;4220176;27;5784;-76
2023/01/08 11:54:40;;;;;;;;;;;;;;;12.61;62.02;96137.94;4226741;27;5669;-68
2023/01/08 11:56:59;;;;;;;;;;;;;;;12.61;62.27;96137.94;4219120;27;5776;-70
2023/01/08 11:59:17;;;;;;;;;;;;;;;12.62;62.13;96123.63;4228069;27;5685;-69
2023/01/08 12:01:34;;;;;;;;;;;;;;;12.63;62.47;96138.50;4228800;27;5689;-72
2023/01/08 12:03:41;;;;;;;;;;;;;;;12.64;62.44;96142.78;4225146;27;5748;-70
2023/01/08 12:05:48;;;;;;;;;;;;;;;12.63;62.42;96134.00;4226830;28;5845;-71
2023/01/08 12:07:59;;;;;;;;;;;;;;;12.63;62.48;96114.66;4229627;27;5680;-73
2023/01/08 12:10:11;;;;;;;;;;;;;;;12.61;62.22;96117.53;4217426;27;5704;-69
2023/01/08 12:12:26;;;;;;;;;;;;;;;12.60;62.51;96125.69;4224902;27;5856;-71
2023/01/08 12:14:44;;;;;;;;;;;;;;;12.60;62.51;96123.84;4218044;27;5620;-72
2023/01/08 12:17:01;;;;;;;;;;;;;;;12.62;62.52;96116.47;4226912;27;5633;-70
2023/01/08 12:19:18;;;;;;;;;;;;;;;12.66;62.39;96104.38;4232115;27;5714;-68
2023/01/08 12:21:30;;;;;;;;;;;;;;;12.69;62.27;96095.22;4220196;27;5732;-71
2023/01/08 12:23:50;;;;;;;;;;;;;;;12.70;62.06;96107.44;4226122;28;6005;-75
2023/01/08 12:26:04;;;;;;;;;;;;;;;12.72;62.38;96094.75;4219226;27;7679;-71
2023/01/08 12:28:19;;;;;;;;;;;;;;;12.74;62.26;96090.03;4228056;27;5594;-68
2023/01/08 12:30:38;;;;;;;;;;;;;;;12.74;62.14;96080.22;4226499;27;5760;-73
2023/01/08 12:32:45;;;;;;;;;;;;;;;12.76;62.28;96085.31;4236893;27;5875;-71
2023/01/08 12:34:56;;;;;;;;;;;;;;;12.76;62.21;96078.16;4230913;27;7772;-76
2023/01/08 12:37:06;;;;;;;;;;;;;;;12.73;62.33;96075.97;4217595;28;5740;-76
2023/01/08 12:39:14;;;;;;;;;;;;;;;12.73;62.44;96073.31;4221192;27;5617;-76
2023/01/08 12:41:19;;;;;;;;;;;;;;;12.73;62.18;96068.00;4232927;27;5595;-76
2023/01/08 12:43:25;;;;;;;;;;;;;;;12.73;62.52;96070.66;4239491;27;5694;-72
2023/01/08 12:45:32;;;;;;;;;;;;;;;12.72;62.31;96069.03;4228508;28;5713;-68
2023/01/08 12:47:38;;;;;;;;;;;;;;;12.71;62.33;96048.06;4234790;27;5684;-69
2023/01/08 12:49:48;;;;;;;;;;;;;;;12.68;62.65;96049.28;4225358;28;5697;-70
2023/01/08 12:52:00;;;;;;;;;;;;;;;12.71;62.42;96050.69;4225425;27;5720;-71
2023/01/08 12:54:09;;;;;;;;;;;;;;;12.70;62.42;96049.91;4221279;27;5608;-71
2023/01/08 12:56:18;;;;;;;;;;;;;;;12.72;62.48;96047.00;4231352;28;5767;-71
2023/01/08 12:58:32;;;;;;;;;;;;;;;12.72;62.42;96039.88;4220061;27;5852;-71
2023/01/08 13:00:41;;;;;;;;;;;;;;;12.76;62.41;96033.06;4229229;27;5682;-70
2023/01/08 13:02:50;;;;;;;;;;;;;;;12.78;62.24;96024.88;4224689;28;5598;-76
2023/01/08 13:04:53;;;;;;;;;;;;;;;12.75;62.24;96015.53;4217564;27;6383;-69
2023/01/08 13:07:02;;;;;;;;;;;;;;;12.75;62.29;96020.84;4227930;27;5622;-71
2023/01/08 13:09:05;;;;;;;;;;;;;;;12.75;62.13;95998.81;4220632;27;5737;-73
2023/01/08 13:11:09;;;;;;;;;;;;;;;12.77;62.27;95991.44;4221520;27;7714;-70
2023/01/08 13:13:26;;;;;;;;;;;;;;;12.77;62.10;95976.34;4223689;27;5122;-70
2023/01/08 13:15:31;;;;;;;;;;;;;;;12.78;62.26;95979.78;4224317;27;5620;-68
2023/01/08 13:17:37;;;;;;;;;;;;;;;12.78;62.07;95980.59;4217890;27;6580;-67
2023/01/08 13:19:43;;;;;;;;;;;;;;;12.79;62.30;95968.16;4222353;27;5804;-67
2023/01/08 13:21:52;;;;;;;;;;;;;;;12.79;62.25;95960.19;4223793;27;5712;-74
2023/01/08 13:24:01;;;;;;;;;;;;;;;12.78;62.08;95959.38;4223748;27;5685;-75
2023/01/08 13:26:05;;;;;;;;;;;;;;;12.76;62.38;95953.50;4230337;27;5827;-71
2023/01/08 13:28:26;;;;;;;;;;;;;;;12.72;62.19;95962.97;4226000;27;5856;-68
2023/01/08 13:30:37;;;;;;;;;;;;;;;12.68;62.28;95945.88;4225587;27;5605;-73
2023/01/08 13:32:45;;;;;;;;;;;;;;;12.68;62.31;95940.56;4228994;27;5610;-75
2023/01/08 13:34:48;;;;;;;;;;;;;;;12.72;62.06;95939.09;4233845;27;5658;-75
2023/01/08 13:36:59;;;;;;;;;;;;;;;12.75;61.90;95932.50;4231958;27;5730;-70
2023/01/08 13:39:05;;;;;;;;;;;;;;;12.77;61.97;95922.47;4220942;28;5602;-75
2023/01/08 13:41:24;;;;;;;;;;;;;;;12.78;62.08;95922.25;4223038;27;5624;-75
2023/01/08 13:43:31;;;;;;;;;;;;;;;12.77;61.98;95925.94;4227575;27;5657;-75
2023/01/08 13:45:35;;;;;;;;;;;;;;;12.78;62.16;95918.78;4241221;27;5080;-70
2023/01/08 13:47:45;;;;;;;;;;;;;;;12.73;62.08;95913.38;4219702;28;5685;-71
2023/01/08 13:49:51;;;;;;;;;;;;;;;12.69;62.35;95914.88;4234444;27;5665;-73
2023/01/08 13:51:54;;;;;;;;;;;;;;;12.66;62.22;95910.00;4226919;27;5809;-69
2023/01/08 13:54:02;;;;;;;;;;;;;;;12.68;62.17;95913.25;4228341;27;5594;-75
2023/01/08 13:56:08;;;;;;;;;;;;;;;12.67;62.34;95912.44;4222249;27;6252;-75
2023/01/08 13:58:17;;;;;;;;;;;;;;;12.66;62.20;95916.13;4235612;27;5658;-74
2023/01/08 14:00:27;;;;;;;;;;;;;;;12.66;62.20;95918.78;4227679;27;5737;-75
2023/01/08 14:02:32;;;;;;;;;;;;;;;12.67;62.24;95917.72;4227688;27;5601;-70
2023/01/08 14:04:36;;;;;;;;;;;;;;;12.67;62.24;95911.63;4224845;27;5775;-71
2023/01/08 14:06:38;;;;;;;;;;;;;;;12.66;62.42;95910.81;4225719;27;5807;-71
2023/01/08 14:08:50;;;;;;;;;;;;;;;12.65;62.44;95913.69;4226085;27;5729;-73
2023/01/08 14:10:54;;;;;;;;;;;;;;;12.62;62.29;95917.63;4228538;27;5783;-68
2023/01/08 14:13:05;;;;;;;;;;;;;;;12.58;62.55;95908.50;4222427;27;5597;-73
2023/01/08 14:15:17;;;;;;;;;;;;;;;12.60;62.54;95911.75;4224364;27;5629;-66
2023/01/08 14:17:22;;;;;;;;;;;;;;;12.63;62.55;95898.03;4226000;27;5836;-66
2023/01/08 14:19:26;;;;;;;;;;;;;;;12.67;62.50;95888.56;4229594;27;5728;-67
2023/01/08 14:21:30;;;;;;;;;;;;;;;12.68;62.18;95882.22;4226913;28;5676;-67
2023/01/08 14:23:37;;;;;;;;;;;;;;;12.71;62.46;95875.69;4228090;27;5848;-70
2023/01/08 14:25:41;;;;;;;;;;;;;;;12.72;62.32;95877.28;4230520;27;5242;-67
2023/01/08 14:27:54;;;;;;;;;;;;;;;12.72;62.25;95864.84;4229929;27;5594;-67
2023/01/08 14:29:57;;;;;;;;;;;;;;;12.72;62.27;95867.50;4220866;27;6031;-67
2023/01/08 14:32:01;;;;;;;;;;;;;;;12.68;62.03;95866.31;4231688;27;7419;-72
2023/01/08 14:34:05;;;;;;;;;;;;;;;12.67;62.14;95870.00;4232387;27;5692;-77
2023/01/08 14:36:08;;;;;;;;;;;;;;;12.67;62.10;95872.66;4228543;27;5614;-66
2023/01/08 14:38:14;;;;;;;;;;;;;;;12.69;62.16;95870.59;4225990;27;5700;-81
2023/01/08 14:40:27;;;;;;;;;;;;;;;12.72;62.02;95862.19;4226019;27;5792;-77
2023/01/08 14:42:43;;;;;;;;;;;;;;;12.72;62.23;95856.06;4223419;27;5717;-66
2023/01/08 14:44:47;;;;;;;;;;;;;;;12.68;62.13;95844.28;4231574;27;6390;-66
2023/01/08 14:46:50;;;;;;;;;;;;;;;12.67;62.12;95840.03;4233175;27;5694;-64
2023/01/08 14:48:54;;;;;;;;;;;;;;;12.64;61.97;95838.66;4226117;27;5612;-65
2023/01/08 14:51:02;;;;;;;;;;;;;;;12.62;62.20;95847.88;4228078;27;5711;-64
2023/01/08 14:53:15;;;;;;;;;;;;;;;12.60;62.01;95842.81;4227201;27;5700;-67
2023/01/08 14:55:20;;;;;;;;;;;;;;;12.59;62.02;95851.78;4225774;27;5684;-68
2023/01/08 14:57:23;;;;;;;;;;;;;;;12.57;62.23;95843.28;4226389;28;5768;-68